createdAt,value
2022-11-27T00:01:30.433Z,37.05
2022-11-27T00:03:58.177Z,31.73
2022-11-27T00:06:27.359Z,30.35
2022-11-27T00:08:57.867Z,29.88
2022-11-27T00:11:27.793Z,29.58
2022-11-27T00:13:55.894Z,34.35
2022-11-27T00:16:24.180Z,36.42
2022-11-27T00:18:52.382Z,29.38
2022-11-27T00:21:28.258Z,39.30
2022-11-27T00:23:57.514Z,29.10
2022-11-27T00:26:25.868Z,30.35
2022-11-27T00:28:55.166Z,30.25
2022-11-27T00:31:31.753Z,33.35
2022-11-27T00:34:02.127Z,31.02
2022-11-27T00:36:30.451Z,29.85
2022-11-27T00:38:57.651Z,29.83
2022-11-27T00:41:27.725Z,28.65
2022-11-27T00:43:56.654Z,30.23
2022-11-27T00:46:29.052Z,28.35
2022-11-27T00:49:00.846Z,26.30
2022-11-27T00:51:29.305Z,29.80
2022-11-27T00:53:58.186Z,30.88
2022-11-27T00:56:30.404Z,29.17
2022-11-27T00:58:57.958Z,30.48
2022-11-27T01:01:29.077Z,37.75
2022-11-27T01:04:00.163Z,28.95
2022-11-27T01:06:28.722Z,27.42
2022-11-27T01:08:56.344Z,27.45
2022-11-27T01:11:27.354Z,29.90
2022-11-27T01:13:57.317Z,27.33
2022-11-27T01:16:28.255Z,25.77
2022-11-27T01:19:00.530Z,32.55
2022-11-27T01:21:32.812Z,31.83
2022-11-27T01:24:01.225Z,25.63
2022-11-27T01:26:33.970Z,24.25
2022-11-27T01:29:01.462Z,25.63
2022-11-27T01:31:31.827Z,25.25
2022-11-27T01:34:06.162Z,24.40
2022-11-27T01:36:34.728Z,28.30
2022-11-27T01:39:02.981Z,23.23
2022-11-27T01:41:33.296Z,24.02
2022-11-27T01:44:24.041Z,27.33
2022-11-27T01:47:04.352Z,24.02
2022-11-27T01:49:39.217Z,24.83
2022-11-27T01:52:13.076Z,24.98
2022-11-27T01:55:02.168Z,22.40
2022-11-27T01:57:36.267Z,24.92
2022-11-27T02:00:06.641Z,20.20
2022-11-27T02:02:40.583Z,22.20
2022-11-27T02:05:09.019Z,24.05
2022-11-27T02:07:36.838Z,26.90
2022-11-27T02:10:07.117Z,25.17
2022-11-27T02:12:40.395Z,21.90
2022-11-27T02:15:14.414Z,26.63
2022-11-27T02:18:04.329Z,23.25
2022-11-27T02:20:48.785Z,28.33
2022-11-27T02:23:46.821Z,25.13
2022-11-27T02:26:16.956Z,21.42
2022-11-27T02:29:03.618Z,24.40
2022-11-27T02:31:55.507Z,23.17
2022-11-27T02:34:50.292Z,24.35
2022-11-27T02:37:36.501Z,27.92
2022-11-27T02:40:22.509Z,24.33
2022-11-27T02:42:53.757Z,28.52
2022-11-27T02:45:29.510Z,27.50
2022-11-27T02:47:58.076Z,29.13
2022-11-27T02:50:27.520Z,26.23
2022-11-27T02:53:01.060Z,27.67
2022-11-27T02:58:02.780Z,25.45
2022-11-27T03:00:31.326Z,27.58
2022-11-27T03:03:06.338Z,24.50
2022-11-27T03:05:38.558Z,26.02
2022-11-27T03:08:10.506Z,25.75
2022-11-27T03:10:49.505Z,23.58
2022-11-27T03:13:17.371Z,23.60
2022-11-27T03:16:28.312Z,21.95
2022-11-27T03:19:22.071Z,24.08
2022-11-27T03:21:53.816Z,23.35
2022-11-27T03:24:21.101Z,25.55
2022-11-27T03:26:49.091Z,26.00
2022-11-27T03:29:32.476Z,29.75
2022-11-27T03:32:01.132Z,21.95
2022-11-27T03:34:33.091Z,26.48
2022-11-27T03:37:01.396Z,27.05
2022-11-27T03:39:30.104Z,33.30
2022-11-27T03:42:07.594Z,25.05
2022-11-27T03:45:08.678Z,23.63
2022-11-27T03:48:01.757Z,24.65
2022-11-27T03:50:50.753Z,30.07
2022-11-27T03:53:46.039Z,27.95
2022-11-27T03:56:40.296Z,23.80
2022-11-27T03:59:18.365Z,33.45
2022-11-27T04:01:45.937Z,28.15
2022-11-27T04:04:13.630Z,22.58
2022-11-27T04:06:40.995Z,22.08
2022-11-27T04:09:08.359Z,24.35
2022-11-27T04:11:37.698Z,26.73
2022-11-27T04:14:05.232Z,23.48
2022-11-27T04:16:33.053Z,26.83
2022-11-27T04:19:00.309Z,22.60
2022-11-27T04:21:27.614Z,21.20
2022-11-27T04:23:54.799Z,19.80
2022-11-27T04:26:22.341Z,25.13
2022-11-27T04:28:52.418Z,24.35
2022-11-27T04:31:19.808Z,20.80
2022-11-27T04:33:47.079Z,23.85
2022-11-27T04:36:14.342Z,21.45
2022-11-27T04:38:42.120Z,25.02
2022-11-27T04:41:10.346Z,26.30
2022-11-27T04:43:38.012Z,25.83
2022-11-27T04:46:05.402Z,23.85
2022-11-27T04:48:34.000Z,23.40
2022-11-27T04:51:01.181Z,25.60
2022-11-27T04:53:28.453Z,23.48
2022-11-27T04:55:55.736Z,20.55
2022-11-27T04:58:24.067Z,21.77
2022-11-27T05:00:52.117Z,20.88
2022-11-27T05:03:19.457Z,23.45
2022-11-27T05:05:57.100Z,18.23
2022-11-27T05:08:25.495Z,26.65
2022-11-27T05:11:11.427Z,18.35
2022-11-27T05:13:39.510Z,21.45
2022-11-27T05:16:07.179Z,18.00
2022-11-27T05:18:35.236Z,19.33
2022-11-27T05:21:07.112Z,25.42
2022-11-27T05:23:35.763Z,18.35
2022-11-27T05:26:03.755Z,19.60
2022-11-27T05:28:31.078Z,19.92
2022-11-27T05:30:58.677Z,16.50
2022-11-27T05:33:26.607Z,19.48
2022-11-27T05:35:53.970Z,23.77
2022-11-27T05:38:21.681Z,22.25
2022-11-27T05:40:49.033Z,22.25
2022-11-27T05:43:16.443Z,18.13
2022-11-27T05:45:43.783Z,19.23
2022-11-27T05:48:10.941Z,18.35
2022-11-27T05:50:38.308Z,20.90
2022-11-27T05:53:05.465Z,19.00
2022-11-27T05:55:33.166Z,18.40
2022-11-27T05:58:00.415Z,15.88
2022-11-27T06:00:27.818Z,16.20
2022-11-27T06:02:56.812Z,18.70
2022-11-27T06:05:24.045Z,16.05
2022-11-27T06:07:51.523Z,13.05
2022-11-27T06:10:18.792Z,16.77
2022-11-27T06:12:46.376Z,13.30
2022-11-27T06:15:13.632Z,15.68
2022-11-27T06:17:40.783Z,14.73
2022-11-27T06:20:09.797Z,17.38
2022-11-27T06:22:36.908Z,19.80
2022-11-27T06:25:04.965Z,13.98
2022-11-27T06:27:36.393Z,16.35
2022-11-27T06:30:05.236Z,15.15
2022-11-27T06:32:33.086Z,16.90
2022-11-27T06:35:00.508Z,20.10
2022-11-27T06:37:28.062Z,17.98
2022-11-27T06:39:55.334Z,15.90
2022-11-27T06:42:23.114Z,18.35
2022-11-27T06:44:50.299Z,12.75
2022-11-27T06:47:19.121Z,18.52
2022-11-27T06:49:46.727Z,17.55
2022-11-27T06:52:13.905Z,13.63
2022-11-27T06:54:41.539Z,15.52
2022-11-27T06:57:08.853Z,14.35
2022-11-27T06:59:35.979Z,17.27
2022-11-27T07:02:03.445Z,14.80
2022-11-27T07:04:30.682Z,14.20
2022-11-27T07:06:59.504Z,15.45
2022-11-27T07:09:27.220Z,13.93
2022-11-27T07:11:54.610Z,16.55
2022-11-27T07:14:22.000Z,15.50
2022-11-27T07:16:49.189Z,13.35
2022-11-27T07:19:16.863Z,17.33
2022-11-27T07:21:44.782Z,13.48
2022-11-27T07:24:16.037Z,14.10
2022-11-27T07:26:44.604Z,15.38
2022-11-27T07:29:27.882Z,19.13
2022-11-27T07:31:56.336Z,15.10
2022-11-27T07:34:24.264Z,16.45
2022-11-27T07:36:52.729Z,12.95
2022-11-27T07:39:46.333Z,14.43
2022-11-27T07:42:38.005Z,13.10
2022-11-27T07:45:02.589Z,11.85
2022-11-27T07:47:30.781Z,15.05
2022-11-27T07:50:00.589Z,13.10
2022-11-27T07:52:38.081Z,12.95
2022-11-27T07:55:12.981Z,13.68
2022-11-27T07:57:42.971Z,13.93
2022-11-27T08:00:10.966Z,13.15
2022-11-27T08:02:39.028Z,13.15
2022-11-27T08:05:13.504Z,14.20
2022-11-27T08:07:42.712Z,15.23
2022-11-27T08:10:10.296Z,16.08
2022-11-27T08:12:38.072Z,16.65
2022-11-27T08:15:06.006Z,34.95
2022-11-27T08:17:33.675Z,20.45
2022-11-27T08:20:01.266Z,18.40
2022-11-27T08:22:28.819Z,16.90
2022-11-27T08:24:56.064Z,20.45
2022-11-27T08:27:23.519Z,17.52
2022-11-27T08:29:51.070Z,20.30
2022-11-27T08:32:18.343Z,22.95
2022-11-27T08:34:45.678Z,20.98
2022-11-27T08:37:12.943Z,18.63
2022-11-27T08:39:40.182Z,22.77
2022-11-27T08:42:07.535Z,24.85
2022-11-27T08:44:34.978Z,23.17
2022-11-27T08:47:03.725Z,21.67
2022-11-27T08:49:31.805Z,22.92
2022-11-27T08:52:03.161Z,26.50
2022-11-27T08:54:31.025Z,24.45
2022-11-27T08:56:59.742Z,23.08
2022-11-27T08:59:27.278Z,24.63
2022-11-27T09:01:54.970Z,25.17
2022-11-27T09:04:22.568Z,22.10
2022-11-27T09:06:58.114Z,20.55
2022-11-27T09:09:26.248Z,22.38
2022-11-27T09:11:55.722Z,18.20
2022-11-27T09:14:23.807Z,24.58
2022-11-27T09:16:53.966Z,24.05
2022-11-27T09:19:22.435Z,21.85
2022-11-27T09:21:51.294Z,18.60
2022-11-27T09:24:21.946Z,17.60
2022-11-27T09:26:49.914Z,15.60
2022-11-27T09:29:17.175Z,15.73
2022-11-27T09:31:44.914Z,16.23
2022-11-27T09:34:15.232Z,17.65
2022-11-27T09:36:42.408Z,17.00
2022-11-27T09:39:09.633Z,17.60
2022-11-27T09:41:55.885Z,16.27
2022-11-27T09:44:39.979Z,13.38
2022-11-27T09:47:20.651Z,15.80
2022-11-27T09:49:52.837Z,14.20
2022-11-27T09:52:19.959Z,14.50
2022-11-27T09:55:00.814Z,15.30
2022-11-27T09:57:39.793Z,18.60
2022-11-27T10:00:18.719Z,12.57
2022-11-27T10:02:46.497Z,14.88
2022-11-27T10:05:17.627Z,18.65
2022-11-27T10:08:21.014Z,15.55
2022-11-27T10:10:54.227Z,16.23
2022-11-27T10:13:55.843Z,13.27
2022-11-27T10:16:53.971Z,14.45
2022-11-27T10:19:36.851Z,13.60
2022-11-27T10:22:24.944Z,14.40
2022-11-27T10:25:32.308Z,16.25
2022-11-27T10:28:21.235Z,14.18
2022-11-27T10:30:54.955Z,14.98
2022-11-27T10:33:34.027Z,11.80
2022-11-27T10:36:07.105Z,11.95
2022-11-27T10:38:39.996Z,11.48
2022-11-27T10:41:50.637Z,12.98
2022-11-27T10:44:27.900Z,12.18
2022-11-27T10:47:08.881Z,11.43
2022-11-27T10:49:49.314Z,14.38
2022-11-27T10:52:20.528Z,10.38
2022-11-27T10:54:56.180Z,12.20
2022-11-27T10:57:44.699Z,10.52
2022-11-27T11:00:40.384Z,15.02
2022-11-27T11:03:19.226Z,9.75
2022-11-27T11:06:20.466Z,10.05
2022-11-27T11:09:02.444Z,12.70
2022-11-27T11:11:30.380Z,10.75
2022-11-27T11:13:58.149Z,12.05
2022-11-27T11:16:35.220Z,14.02
2022-11-27T11:19:06.803Z,10.15
2022-11-27T11:21:40.971Z,11.27
2022-11-27T11:24:31.168Z,15.57
2022-11-27T11:27:17.288Z,11.43
2022-11-27T11:29:50.387Z,12.70
2022-11-27T11:32:25.889Z,13.15
2022-11-27T11:35:02.940Z,13.45
2022-11-27T11:37:50.031Z,14.55
2022-11-27T11:40:24.667Z,12.23
2022-11-27T11:43:00.445Z,13.73
2022-11-27T11:45:32.926Z,10.70
2022-11-27T11:48:04.019Z,10.10
2022-11-27T11:50:45.232Z,10.95
2022-11-27T11:53:36.634Z,8.93
2022-11-27T11:56:16.283Z,9.40
2022-11-27T11:59:17.393Z,12.68
2022-11-27T12:01:59.776Z,10.45
2022-11-27T12:05:11.957Z,8.55
2022-11-27T12:08:04.044Z,11.18
2022-11-27T12:10:55.580Z,8.95
2022-11-27T12:13:47.348Z,7.57
2022-11-27T12:16:36.753Z,10.63
2022-11-27T12:19:33.698Z,10.00
2022-11-27T12:22:44.363Z,9.40
2022-11-27T12:25:17.282Z,8.38
2022-11-27T12:28:19.043Z,8.75
2022-11-27T12:30:56.687Z,11.00
2022-11-27T12:33:56.274Z,10.20
2022-11-27T12:36:42.432Z,7.60
2022-11-27T12:39:33.295Z,8.45
2022-11-27T12:42:22.171Z,8.68
2022-11-27T12:45:22.520Z,7.65
2022-11-27T12:47:58.419Z,6.78
2022-11-27T12:50:42.300Z,11.70
2022-11-27T12:53:25.189Z,7.75
2022-11-27T12:56:16.187Z,8.65
2022-11-27T12:58:47.388Z,7.50
2022-11-27T13:01:25.084Z,5.60
2022-11-27T13:04:24.191Z,8.02
2022-11-27T13:07:06.857Z,10.32
2022-11-27T13:09:42.373Z,6.57
2022-11-27T13:12:17.802Z,6.60
2022-11-27T13:14:52.967Z,6.13
2022-11-27T13:17:21.419Z,5.75
2022-11-27T13:19:51.705Z,6.25
2022-11-27T13:22:32.774Z,5.20
2022-11-27T13:25:04.091Z,7.15
2022-11-27T13:27:35.685Z,6.85
2022-11-27T13:30:10.187Z,8.48
2022-11-27T13:32:42.514Z,6.25
2022-11-27T13:35:43.577Z,6.35
2022-11-27T13:38:15.580Z,7.38
2022-11-27T13:40:47.189Z,6.53
2022-11-27T13:43:34.918Z,8.02
2022-11-27T13:46:22.826Z,5.22
2022-11-27T13:49:01.701Z,9.63
2022-11-27T13:51:33.266Z,5.53
2022-11-27T13:54:16.258Z,9.18
2022-11-27T13:56:44.543Z,6.32
2022-11-27T13:59:17.682Z,7.20
2022-11-27T14:02:05.510Z,8.15
2022-11-27T14:04:34.901Z,6.47
2022-11-27T14:07:10.738Z,8.05
2022-11-27T14:09:47.858Z,5.72
2022-11-27T14:12:26.613Z,5.95
2022-11-27T14:15:19.474Z,8.45
2022-11-27T14:17:49.691Z,9.57
2022-11-27T14:20:17.114Z,4.80
2022-11-27T14:23:10.583Z,7.72
2022-11-27T14:25:39.849Z,18.13
2022-11-27T14:28:19.996Z,16.65
2022-11-27T14:30:53.217Z,12.35
2022-11-27T14:33:25.942Z,12.60
2022-11-27T14:35:56.122Z,5.70
2022-11-27T14:38:25.866Z,5.82
2022-11-27T14:41:09.945Z,10.27
2022-11-27T14:43:37.763Z,8.95
2022-11-27T14:46:09.720Z,6.97
2022-11-27T14:48:41.739Z,5.55
2022-11-27T14:51:24.217Z,7.88
2022-11-27T14:53:58.685Z,10.50
2022-11-27T14:56:33.094Z,4.78
2022-11-27T14:59:01.774Z,6.93
2022-11-27T15:01:35.660Z,7.80
2022-11-27T15:04:26.713Z,12.02
2022-11-27T15:06:55.781Z,8.10
2022-11-27T15:09:33.830Z,8.02
2022-11-27T15:12:29.934Z,5.60
2022-11-27T15:14:57.097Z,4.53
2022-11-27T15:17:28.877Z,7.65
2022-11-27T15:19:58.170Z,6.45
2022-11-27T15:22:26.531Z,7.15
2022-11-27T15:25:02.868Z,5.70
2022-11-27T15:27:46.017Z,8.88
2022-11-27T15:30:18.420Z,6.40
2022-11-27T15:32:55.566Z,5.88
2022-11-27T15:35:35.557Z,6.28
2022-11-27T15:38:11.613Z,6.03
2022-11-27T15:40:42.684Z,6.03
2022-11-27T15:43:17.481Z,7.32
2022-11-27T15:45:45.406Z,6.47
2022-11-27T15:48:20.909Z,4.72
2022-11-27T15:50:51.626Z,7.45
2022-11-27T15:53:20.445Z,4.55
2022-11-27T15:55:48.725Z,4.28
2022-11-27T15:58:16.969Z,5.07
2022-11-27T16:00:45.342Z,10.63
2022-11-27T16:03:13.484Z,6.13
2022-11-27T16:05:41.932Z,8.50
2022-11-27T16:08:11.771Z,5.38
2022-11-27T16:10:43.368Z,8.13
2022-11-27T16:13:10.636Z,5.13
2022-11-27T16:15:37.929Z,4.72
2022-11-27T16:18:07.420Z,6.32
2022-11-27T16:20:35.407Z,8.77
2022-11-27T16:23:02.738Z,7.28
2022-11-27T16:25:30.714Z,5.05
2022-11-27T16:28:04.157Z,6.70
2022-11-27T16:30:31.946Z,5.47
2022-11-27T16:32:59.896Z,7.63
2022-11-27T16:35:28.217Z,16.42
2022-11-27T16:37:56.506Z,5.20
2022-11-27T16:40:27.929Z,8.45
2022-11-27T16:42:55.391Z,6.40
2022-11-27T16:45:25.342Z,8.73
2022-11-27T16:47:54.255Z,10.55
2022-11-27T16:50:21.837Z,8.63
2022-11-27T16:52:54.406Z,8.68
2022-11-27T16:55:30.315Z,8.23
2022-11-27T16:57:59.540Z,11.32
2022-11-27T17:00:29.063Z,9.27
2022-11-27T17:02:57.829Z,11.80
2022-11-27T17:05:25.544Z,10.90
2022-11-27T17:07:53.552Z,10.40
2022-11-27T17:10:21.198Z,10.80
2022-11-27T17:12:49.036Z,11.38
2022-11-27T17:15:18.640Z,12.13
2022-11-27T17:17:49.096Z,10.52
2022-11-27T17:20:19.448Z,10.77
2022-11-27T17:22:49.355Z,10.05
2022-11-27T17:25:18.188Z,9.45
2022-11-27T17:27:46.254Z,12.68
2022-11-27T17:30:15.205Z,14.30
2022-11-27T17:32:43.124Z,9.65
2022-11-27T17:35:10.680Z,11.18
2022-11-27T17:37:38.004Z,9.48
2022-11-27T17:40:06.475Z,8.23
2022-11-27T17:42:33.793Z,13.20
2022-11-27T17:45:01.963Z,15.02
2022-11-27T17:47:29.181Z,9.10
2022-11-27T17:49:56.294Z,10.13
2022-11-27T17:52:23.833Z,21.50
2022-11-27T17:54:51.207Z,74.05
2022-11-27T17:57:19.023Z,39.72
2022-11-27T17:59:46.586Z,61.80
2022-11-27T18:02:14.095Z,53.30
2022-11-27T18:04:43.069Z,59.58
2022-11-27T18:07:10.725Z,55.63
2022-11-27T18:09:38.670Z,56.70
2022-11-27T18:12:09.282Z,58.67
2022-11-27T18:14:36.632Z,48.03
2022-11-27T18:17:05.588Z,44.15
2022-11-27T18:19:33.451Z,38.70
2022-11-27T18:22:00.855Z,41.33
2022-11-27T18:24:29.277Z,42.90
2022-11-27T18:27:12.288Z,43.70
2022-11-27T18:29:45.136Z,46.00
2022-11-27T18:32:14.459Z,54.70
2022-11-27T18:34:42.802Z,50.63
2022-11-27T18:37:10.531Z,42.60
2022-11-27T18:39:39.520Z,40.20
2022-11-27T18:42:08.718Z,40.03
2022-11-27T18:44:44.442Z,28.05
2022-11-27T18:47:13.517Z,27.17
2022-11-27T18:49:41.547Z,26.73
2022-11-27T18:52:10.002Z,22.75
2022-11-27T18:54:38.048Z,21.80
2022-11-27T18:57:07.298Z,23.77
2022-11-27T18:59:35.669Z,24.13
2022-11-27T19:02:04.417Z,21.70
2022-11-27T19:04:31.849Z,23.95
2022-11-27T19:06:59.532Z,24.67
2022-11-27T19:09:30.081Z,24.63
2022-11-27T19:11:58.255Z,27.48
2022-11-27T19:14:25.543Z,23.67
2022-11-27T19:16:53.206Z,26.38
2022-11-27T19:22:10.026Z,25.23
2022-11-27T19:24:39.739Z,22.60
2022-11-27T19:27:07.443Z,22.10
2022-11-27T19:29:35.815Z,22.33
2022-11-27T19:32:04.773Z,23.98
2022-11-27T19:34:32.801Z,20.95
2022-11-27T19:37:00.263Z,24.48
2022-11-27T19:39:28.875Z,19.75
2022-11-27T19:42:01.236Z,19.58
2022-11-27T19:44:30.119Z,32.10
2022-11-27T19:46:57.858Z,44.72
2022-11-27T19:49:27.017Z,42.72
2022-11-27T19:51:54.852Z,52.97
2022-11-27T19:54:23.901Z,40.58
2022-11-27T19:56:52.209Z,41.58
2022-11-27T19:59:24.384Z,42.80
2022-11-27T20:01:54.261Z,34.65
2022-11-27T20:04:26.213Z,37.17
2022-11-27T20:06:53.893Z,33.00
2022-11-27T20:09:22.544Z,33.47
2022-11-27T20:11:50.051Z,23.88
2022-11-27T20:14:17.836Z,32.90
2022-11-27T20:16:45.816Z,30.17
2022-11-27T20:19:13.739Z,31.17
2022-11-27T20:21:42.641Z,40.58
2022-11-27T20:24:10.505Z,42.72
2022-11-27T20:26:42.643Z,40.30
2022-11-27T20:29:12.020Z,29.25
2022-11-27T20:31:41.669Z,27.08
2022-11-27T20:34:17.702Z,24.38
2022-11-27T20:36:45.718Z,31.40
2022-11-27T20:39:20.583Z,33.88
2022-11-27T20:41:50.333Z,32.33
2022-11-27T20:44:19.345Z,29.58
2022-11-27T20:46:47.508Z,28.02
2022-11-27T20:49:15.411Z,35.97
2022-11-27T20:51:43.378Z,27.80
2022-11-27T20:54:13.177Z,25.45
2022-11-27T20:56:43.633Z,21.58
2022-11-27T20:59:13.462Z,24.35
2022-11-27T21:01:42.361Z,19.73
2022-11-27T21:04:22.548Z,21.15
2022-11-27T21:06:50.508Z,20.85
2022-11-27T21:09:21.678Z,20.88
2022-11-27T21:11:49.632Z,20.08
2022-11-27T21:14:17.652Z,26.88
2022-11-27T21:16:49.115Z,26.85
2022-11-27T21:19:20.865Z,31.83
2022-11-27T21:21:50.819Z,47.58
2022-11-27T21:24:19.752Z,50.10
2022-11-27T21:26:48.391Z,32.85
2022-11-27T21:29:16.740Z,39.72
2022-11-27T21:31:47.161Z,50.13
2022-11-27T21:34:17.090Z,37.42
2022-11-27T21:36:45.497Z,37.85
2022-11-27T21:39:20.818Z,45.33
2022-11-27T21:41:54.212Z,54.35
2022-11-27T21:44:23.505Z,53.75
2022-11-27T21:46:51.905Z,37.05
2022-11-27T21:49:20.852Z,21.20
2022-11-27T21:51:53.110Z,13.07
2022-11-27T21:54:23.851Z,20.73
2022-11-27T21:56:53.742Z,24.77
2022-11-27T21:59:23.239Z,30.58
2022-11-27T22:01:51.162Z,21.20
2022-11-27T22:04:19.128Z,33.65
2022-11-27T22:06:46.543Z,38.15
2022-11-27T22:09:15.978Z,29.30
2022-11-27T22:11:45.322Z,43.72
2022-11-27T22:14:14.517Z,54.33
2022-11-27T22:16:45.917Z,61.08
2022-11-27T22:19:14.747Z,57.92
2022-11-27T22:21:44.474Z,54.85
2022-11-27T22:24:16.844Z,46.95
2022-11-27T22:26:49.491Z,64.13
2022-11-27T22:29:18.058Z,53.30
2022-11-27T22:31:45.423Z,19.08
2022-11-27T22:34:16.593Z,10.25
2022-11-27T22:36:44.653Z,12.05
2022-11-27T22:39:12.314Z,9.93
2022-11-27T22:41:41.526Z,22.25
2022-11-27T22:44:14.242Z,23.15
2022-11-27T22:46:42.730Z,14.47
2022-11-27T22:49:13.027Z,23.15
2022-11-27T22:51:40.881Z,25.52
2022-11-27T22:54:10.997Z,23.67
2022-11-27T22:56:40.168Z,17.05
2022-11-27T22:59:31.543Z,32.97
2022-11-27T23:01:58.759Z,13.50
2022-11-27T23:04:26.678Z,14.02
2022-11-27T23:06:54.022Z,10.13
2022-11-27T23:09:21.638Z,13.68
2022-11-27T23:11:49.347Z,17.92
2022-11-27T23:14:17.296Z,17.10
2022-11-27T23:16:45.666Z,19.90
2022-11-27T23:19:13.045Z,13.48
2022-11-27T23:21:40.199Z,20.05
2022-11-27T23:24:10.552Z,19.02
2022-11-27T23:26:38.489Z,16.70
2022-11-27T23:29:05.958Z,19.00
2022-11-27T23:31:35.639Z,13.23
2022-11-27T23:34:07.812Z,20.60
2022-11-27T23:36:35.628Z,30.70
2022-11-27T23:39:05.774Z,36.50
2022-11-27T23:41:33.372Z,32.75
2022-11-27T23:44:01.682Z,33.85
2022-11-27T23:46:30.958Z,26.20
2022-11-27T23:49:00.321Z,28.77
2022-11-27T23:51:30.889Z,10.65
2022-11-27T23:53:59.088Z,14.73
2022-11-27T23:56:32.865Z,19.83
2022-11-27T23:59:01.470Z,10.93
